KARV/ARV METAR and TAF weather

Enter ICAO airport designator
Station Type Date Time Source
KARV METAR 2019/06/16 06:35 UTC NOAA

KARV 160635Z AUTO 00000KT 10SM CLR 11/07 A2990 RMK AO2 T01100071


Station Type Date Time Source
KARV Decoded METAR 2019/06/16 06:35 UTC NOAA

Minocqua/Woodruff, Lakeland Airport/Noble F. Lee Memorial Field, WI, United States (KARV) 45-56N 089-44W
Jun 16, 2019 - 02:35 AM EDT / 2019.06.16 0635 UTC
Wind: Calm:0
Visibility: 10 mile(s):0
Sky conditions: clear
Temperature: 51.8 F (11.0 C)
Dew Point: 44.8 F (7.1 C)
Relative Humidity: 76%
Pressure (altimeter): 29.9 in. Hg (1012 hPa)
ob: KARV 160635Z AUTO 00000KT 10SM CLR 11/07 A2990 RMK AO2 T01100071
cycle: 6

Station Type Date Time Source
KARV TAF UTC NOAA

Error!

Example: see airport list